Aviation Digital Data Service (ADDS)

Output produced by METARs form (0726 UTC 16 October 2018)
found at http://aviationweather.gov/metar/data/
 
KASD 160706Z AUTO 00000KT 3/4SM +TSRA BR SCT005 BKN010 OVC022 23/22 A3007 RMK AO2 P0022 T02280222
KASD 160656Z AUTO VRB03KT 1SM +TSRA BR SCT003 BKN008 OVC045 23/22 A3006 RMK AO2 LTG DSNT E P0001 T02280222
KASD 160653Z AUTO VRB04KT 3/4SM +TSRA BR SCT007 BKN022 OVC050 23/22 A3006 RMK AO2 LTG DSNT E TSB53 SLP179 P0042 T02280222
KASD 160645Z AUTO 00000KT 1 3/4SM +RA BR FEW004 BKN020 OVC047 23/22 A3006 RMK AO2 LTG DSNT E AND SW P0017 T02330222
KASD 160520Z 1606/1706 VRB03KT P6SM SCT020 BKN060 
     TEMPO 1606/1610 3SM -SHRA BKN020 
     FM161000 VRB03KT 6SM BR VCSH BKN018 
     FM161400 05004KT P6SM BKN020 
     FM161500 06004KT P6SM BKN015 BKN020 
     PROB30 1615/1617 4SM -SHRA OVC010 
     FM161700 07004KT P6SM SCT020 BKN040 
     PROB30 1623/1705 4SM -SHRA OVC015 
     FM170500 03005KT P6SM BKN010 BKN060 
     PROB30 1705/1706 4SM -SHRA OVC008